sensor_id;sensor_type;location;lat;lon;timestamp;temperature;humidity
1766;DHT22;880;52.452;8.656;2023-04-10T00:00:34;8.10;99.90
1766;DHT22;880;52.452;8.656;2023-04-10T00:03:02;8.00;99.90
1766;DHT22;880;52.452;8.656;2023-04-10T00:05:30;8.00;99.90
1766;DHT22;880;52.452;8.656;2023-04-10T00:07:57;8.00;99.90
1766;DHT22;880;52.452;8.656;2023-04-10T00:10:24;7.90;99.90
1766;DHT22;880;52.452;8.656;2023-04-10T00:12:52;7.90;99.90
1766;DHT22;880;52.452;8.656;2023-04-10T00:15:19;7.90;99.90
1766;DHT22;880;52.452;8.656;2023-04-10T00:17:46;7.80;99.90
1766;DHT22;880;52.452;8.656;2023-04-10T00:20:16;7.80;99.90
1766;DHT22;880;52.452;8.656;2023-04-10T00:22:43;7.70;99.90
1766;DHT22;880;52.452;8.656;2023-04-10T00:25:10;7.70;99.90
1766;DHT22;880;52.452;8.656;2023-04-10T00:27:37;7.70;99.90
1766;DHT22;880;52.452;8.656;2023-04-10T00:30:04;7.70;99.90
1766;DHT22;880;52.452;8.656;2023-04-10T00:32:33;7.60;99.90
1766;DHT22;880;52.452;8.656;2023-04-10T00:35:01;7.50;99.90
1766;DHT22;880;52.452;8.656;2023-04-10T00:37:28;7.50;99.90
1766;DHT22;880;52.452;8.656;2023-04-10T00:39:55;7.40;99.90
1766;DHT22;880;52.452;8.656;2023-04-10T00:42:22;7.40;99.90
1766;DHT22;880;52.452;8.656;2023-04-10T00:44:49;7.40;99.90
1766;DHT22;880;52.452;8.656;2023-04-10T00:47:16;7.30;99.90
1766;DHT22;880;52.452;8.656;2023-04-10T00:49:43;7.30;99.90
1766;DHT22;880;52.452;8.656;2023-04-10T00:52:10;7.30;99.90
1766;DHT22;880;52.452;8.656;2023-04-10T00:54:38;7.20;99.90
1766;DHT22;880;52.452;8.656;2023-04-10T00:57:06;7.20;99.90
1766;DHT22;880;52.452;8.656;2023-04-10T00:59:34;7.20;99.90
1766;DHT22;880;52.452;8.656;2023-04-10T01:02:01;7.20;99.90
1766;DHT22;880;52.452;8.656;2023-04-10T01:04:29;7.20;99.90
1766;DHT22;880;52.452;8.656;2023-04-10T01:10:02;7.20;99.90
1766;DHT22;880;52.452;8.656;2023-04-10T01:15:54;7.10;99.90
1766;DHT22;880;52.452;8.656;2023-04-10T01:18:37;7.10;99.90
1766;DHT22;880;52.452;8.656;2023-04-10T01:21:11;7.00;99.90
1766;DHT22;880;52.452;8.656;2023-04-10T01:23:52;7.00;99.90
1766;DHT22;880;52.452;8.656;2023-04-10T01:26:38;7.00;99.90
1766;DHT22;880;52.452;8.656;2023-04-10T01:29:16;6.90;99.90
1766;DHT22;880;52.452;8.656;2023-04-10T01:31:52;6.90;99.90
1766;DHT22;880;52.452;8.656;2023-04-10T01:34:38;6.80;99.90
1766;DHT22;880;52.452;8.656;2023-04-10T01:37:12;6.80;99.90
1766;DHT22;880;52.452;8.656;2023-04-10T01:39:43;6.80;99.90
1766;DHT22;880;52.452;8.656;2023-04-10T01:42:17;6.80;99.90
1766;DHT22;880;52.452;8.656;2023-04-10T01:44:46;6.80;99.90
1766;DHT22;880;52.452;8.656;2023-04-10T01:47:14;6.80;99.90
1766;DHT22;880;52.452;8.656;2023-04-10T01:49:45;6.80;99.90
1766;DHT22;880;52.452;8.656;2023-04-10T01:52:13;6.80;99.90
1766;DHT22;880;52.452;8.656;2023-04-10T01:54:46;6.70;99.90
1766;DHT22;880;52.452;8.656;2023-04-10T01:57:22;6.70;99.90
1766;DHT22;880;52.452;8.656;2023-04-10T01:59:56;6.70;99.90
1766;DHT22;880;52.452;8.656;2023-04-10T02:02:24;6.70;99.90
1766;DHT22;880;52.452;8.656;2023-04-10T02:04:51;6.70;99.90
1766;DHT22;880;52.452;8.656;2023-04-10T02:10:16;6.70;99.90
1766;DHT22;880;52.452;8.656;2023-04-10T02:13:13;6.70;99.90
1766;DHT22;880;52.452;8.656;2023-04-10T02:15:42;6.70;99.90
1766;DHT22;880;52.452;8.656;2023-04-10T02:18:15;6.70;99.90
1766;DHT22;880;52.452;8.656;2023-04-10T02:20:43;6.70;99.90
1766;DHT22;880;52.452;8.656;2023-04-10T02:23:11;6.70;99.90
1766;DHT22;880;52.452;8.656;2023-04-10T02:25:41;6.70;99.90
1766;DHT22;880;52.452;8.656;2023-04-10T02:28:08;6.70;99.90
1766;DHT22;880;52.452;8.656;2023-04-10T02:30:35;6.70;99.90
1766;DHT22;880;52.452;8.656;2023-04-10T02:33:02;6.70;99.90
1766;DHT22;880;52.452;8.656;2023-04-10T02:35:30;6.70;99.90
1766;DHT22;880;52.452;8.656;2023-04-10T02:37:57;6.70;99.90
1766;DHT22;880;52.452;8.656;2023-04-10T02:40:25;6.70;99.90
1766;DHT22;880;52.452;8.656;2023-04-10T02:43:07;6.70;99.90
1766;DHT22;880;52.452;8.656;2023-04-10T02:45:34;6.70;99.90
1766;DHT22;880;52.452;8.656;2023-04-10T02:48:01;6.70;99.90
1766;DHT22;880;52.452;8.656;2023-04-10T02:50:31;6.70;99.90
1766;DHT22;880;52.452;8.656;2023-04-10T02:52:59;6.70;99.90
1766;DHT22;880;52.452;8.656;2023-04-10T02:55:26;6.70;99.90
1766;DHT22;880;52.452;8.656;2023-04-10T02:57:54;6.70;99.90
1766;DHT22;880;52.452;8.656;2023-04-10T03:00:21;6.70;99.90
1766;DHT22;880;52.452;8.656;2023-04-10T03:03:07;6.70;99.90
1766;DHT22;880;52.452;8.656;2023-04-10T03:05:44;6.60;99.90
1766;DHT22;880;52.452;8.656;2023-04-10T03:08:17;6.60;99.90
1766;DHT22;880;52.452;8.656;2023-04-10T03:10:45;6.70;99.90
1766;DHT22;880;52.452;8.656;2023-04-10T03:13:16;6.70;99.90
1766;DHT22;880;52.452;8.656;2023-04-10T03:15:43;6.70;99.90
1766;DHT22;880;52.452;8.656;2023-04-10T03:18:10;6.70;99.90
1766;DHT22;880;52.452;8.656;2023-04-10T03:20:39;6.80;99.90
1766;DHT22;880;52.452;8.656;2023-04-10T03:23:08;6.80;99.90
1766;DHT22;880;52.452;8.656;2023-04-10T03:25:35;6.80;99.90
1766;DHT22;880;52.452;8.656;2023-04-10T03:28:04;6.80;99.90
1766;DHT22;880;52.452;8.656;2023-04-10T03:30:31;6.90;99.90
1766;DHT22;880;52.452;8.656;2023-04-10T03:32:58;6.90;99.90
1766;DHT22;880;52.452;8.656;2023-04-10T03:35:25;6.90;99.90
1766;DHT22;880;52.452;8.656;2023-04-10T03:37:51;6.90;99.90
1766;DHT22;880;52.452;8.656;2023-04-10T03:40:19;6.80;99.90
1766;DHT22;880;52.452;8.656;2023-04-10T03:42:46;6.90;99.90
1766;DHT22;880;52.452;8.656;2023-04-10T03:45:13;6.90;99.90
1766;DHT22;880;52.452;8.656;2023-04-10T03:47:40;6.90;99.90
1766;DHT22;880;52.452;8.656;2023-04-10T03:50:09;6.90;99.90
1766;DHT22;880;52.452;8.656;2023-04-10T03:52:45;7.00;99.90
1766;DHT22;880;52.452;8.656;2023-04-10T03:55:15;7.00;99.90
1766;DHT22;880;52.452;8.656;2023-04-10T03:57:46;6.90;99.90
1766;DHT22;880;52.452;8.656;2023-04-10T04:00:16;7.00;99.90
1766;DHT22;880;52.452;8.656;2023-04-10T04:02:49;7.00;99.90
1766;DHT22;880;52.452;8.656;2023-04-10T04:05:40;7.00;99.90
1766;DHT22;880;52.452;8.656;2023-04-10T04:08:21;7.10;99.90
1766;DHT22;880;52.452;8.656;2023-04-10T04:11:07;7.10;99.90
1766;DHT22;880;52.452;8.656;2023-04-10T04:13:43;7.10;99.90
1766;DHT22;880;52.452;8.656;2023-04-10T04:16:24;7.10;99.90
1766;DHT22;880;52.452;8.656;2023-04-10T04:19:04;7.10;99.90
1766;DHT22;880;52.452;8.656;2023-04-10T04:21:38;7.10;99.90
1766;DHT22;880;52.452;8.656;2023-04-10T04:24:18;7.10;99.90
1766;DHT22;880;52.452;8.656;2023-04-10T04:27:11;7.00;99.90
1766;DHT22;880;52.452;8.656;2023-04-10T04:29:48;7.10;99.90
1766;DHT22;880;52.452;8.656;2023-04-10T04:32:41;7.10;99.90
1766;DHT22;880;52.452;8.656;2023-04-10T04:35:31;7.10;99.90
1766;DHT22;880;52.452;8.656;2023-04-10T04:38:14;7.10;99.90
1766;DHT22;880;52.452;8.656;2023-04-10T04:40:54;7.10;99.90
1766;DHT22;880;52.452;8.656;2023-04-10T04:43:54;7.10;99.90
1766;DHT22;880;52.452;8.656;2023-04-10T04:46:40;7.10;99.90
1766;DHT22;880;52.452;8.656;2023-04-10T04:49:30;7.10;99.90
1766;DHT22;880;52.452;8.656;2023-04-10T04:52:12;7.10;99.90
1766;DHT22;880;52.452;8.656;2023-04-10T04:54:42;7.10;99.90
1766;DHT22;880;52.452;8.656;2023-04-10T04:57:35;7.20;99.90
1766;DHT22;880;52.452;8.656;2023-04-10T05:00:22;7.20;99.90
1766;DHT22;880;52.452;8.656;2023-04-10T05:03:00;7.30;99.90
1766;DHT22;880;52.452;8.656;2023-04-10T05:05:39;7.20;99.90
1766;DHT22;880;52.452;8.656;2023-04-10T05:08:26;7.30;99.90
1766;DHT22;880;52.452;8.656;2023-04-10T05:11:19;7.30;99.90
1766;DHT22;880;52.452;8.656;2023-04-10T05:14:05;7.30;99.90
1766;DHT22;880;52.452;8.656;2023-04-10T05:16:56;7.30;99.90
1766;DHT22;880;52.452;8.656;2023-04-10T05:19:46;7.30;99.90
1766;DHT22;880;52.452;8.656;2023-04-10T05:22:32;7.40;99.90
1766;DHT22;880;52.452;8.656;2023-04-10T05:25:16;7.50;99.90
1766;DHT22;880;52.452;8.656;2023-04-10T05:28:08;7.50;99.90
1766;DHT22;880;52.452;8.656;2023-04-10T05:30:51;7.50;99.90
1766;DHT22;880;52.452;8.656;2023-04-10T05:33:41;7.50;99.90
1766;DHT22;880;52.452;8.656;2023-04-10T05:36:20;7.60;99.90
1766;DHT22;880;52.452;8.656;2023-04-10T05:39:11;7.60;99.90
1766;DHT22;880;52.452;8.656;2023-04-10T05:41:55;7.60;99.90
1766;DHT22;880;52.452;8.656;2023-04-10T05:44:31;7.70;99.90
1766;DHT22;880;52.452;8.656;2023-04-10T05:47:14;7.70;99.90
1766;DHT22;880;52.452;8.656;2023-04-10T05:49:55;7.80;99.90
1766;DHT22;880;52.452;8.656;2023-04-10T05:52:49;7.80;99.90
1766;DHT22;880;52.452;8.656;2023-04-10T05:55:35;8.00;99.90
1766;DHT22;880;52.452;8.656;2023-04-10T05:58:15;8.10;99.90
1766;DHT22;880;52.452;8.656;2023-04-10T06:01:03;8.30;99.90
1766;DHT22;880;52.452;8.656;2023-04-10T06:03:45;8.40;99.90
1766;DHT22;880;52.452;8.656;2023-04-10T06:06:14;8.50;99.90
1766;DHT22;880;52.452;8.656;2023-04-10T06:08:42;8.60;99.90
1766;DHT22;880;52.452;8.656;2023-04-10T06:11:09;8.70;99.90
1766;DHT22;880;52.452;8.656;2023-04-10T06:13:36;8.90;99.90
1766;DHT22;880;52.452;8.656;2023-04-10T06:16:03;9.00;99.90
1766;DHT22;880;52.452;8.656;2023-04-10T06:18:31;9.10;99.90
1766;DHT22;880;52.452;8.656;2023-04-10T06:20:58;9.20;99.90
1766;DHT22;880;52.452;8.656;2023-04-10T06:23:27;9.30;99.90
1766;DHT22;880;52.452;8.656;2023-04-10T06:25:55;9.40;99.90
1766;DHT22;880;52.452;8.656;2023-04-10T06:28:22;9.40;99.90
1766;DHT22;880;52.452;8.656;2023-04-10T06:30:53;9.50;99.90
1766;DHT22;880;52.452;8.656;2023-04-10T06:33:28;9.60;99.90
1766;DHT22;880;52.452;8.656;2023-04-10T06:35:57;9.70;99.90
1766;DHT22;880;52.452;8.656;2023-04-10T06:38:24;9.80;99.90
1766;DHT22;880;52.452;8.656;2023-04-10T06:40:51;9.90;99.90
1766;DHT22;880;52.452;8.656;2023-04-10T06:43:18;10.00;99.90
1766;DHT22;880;52.452;8.656;2023-04-10T06:45:47;10.00;99.90
1766;DHT22;880;52.452;8.656;2023-04-10T06:48:14;10.10;99.90
1766;DHT22;880;52.452;8.656;2023-04-10T06:50:41;10.10;99.90
1766;DHT22;880;52.452;8.656;2023-04-10T06:53:08;10.20;99.90
1766;DHT22;880;52.452;8.656;2023-04-10T06:55:35;10.30;99.90
1766;DHT22;880;52.452;8.656;2023-04-10T06:58:03;10.30;99.90
1766;DHT22;880;52.452;8.656;2023-04-10T07:00:30;10.40;99.90
1766;DHT22;880;52.452;8.656;2023-04-10T07:02:57;10.40;99.90
1766;DHT22;880;52.452;8.656;2023-04-10T07:05:24;10.50;99.90
1766;DHT22;880;52.452;8.656;2023-04-10T07:07:51;10.60;99.90
1766;DHT22;880;52.452;8.656;2023-04-10T07:10:18;10.70;99.90
1766;DHT22;880;52.452;8.656;2023-04-10T07:12:46;10.90;99.90
1766;DHT22;880;52.452;8.656;2023-04-10T07:15:12;11.00;99.90
1766;DHT22;880;52.452;8.656;2023-04-10T07:17:39;11.10;99.90
1766;DHT22;880;52.452;8.656;2023-04-10T07:20:07;11.20;99.90
1766;DHT22;880;52.452;8.656;2023-04-10T07:22:34;11.40;99.90
1766;DHT22;880;52.452;8.656;2023-04-10T07:25:01;11.50;99.90
1766;DHT22;880;52.452;8.656;2023-04-10T07:27:28;11.60;99.90
1766;DHT22;880;52.452;8.656;2023-04-10T07:29:55;11.70;99.90
1766;DHT22;880;52.452;8.656;2023-04-10T07:32:22;11.70;99.90
1766;DHT22;880;52.452;8.656;2023-04-10T07:34:50;11.80;99.90
1766;DHT22;880;52.452;8.656;2023-04-10T07:37:17;11.90;99.90
1766;DHT22;880;52.452;8.656;2023-04-10T07:39:44;12.00;99.90
1766;DHT22;880;52.452;8.656;2023-04-10T07:42:11;12.10;99.90
1766;DHT22;880;52.452;8.656;2023-04-10T07:44:38;12.20;99.90
1766;DHT22;880;52.452;8.656;2023-04-10T07:47:05;12.40;99.90
1766;DHT22;880;52.452;8.656;2023-04-10T07:49:31;12.50;99.90
1766;DHT22;880;52.452;8.656;2023-04-10T07:51:58;12.60;99.90
1766;DHT22;880;52.452;8.656;2023-04-10T07:54:25;12.70;99.90
1766;DHT22;880;52.452;8.656;2023-04-10T07:56:52;12.80;99.90
1766;DHT22;880;52.452;8.656;2023-04-10T07:59:19;12.90;99.90
1766;DHT22;880;52.452;8.656;2023-04-10T08:01:46;13.10;99.90
1766;DHT22;880;52.452;8.656;2023-04-10T08:04:13;13.20;99.90
1766;DHT22;880;52.452;8.656;2023-04-10T08:06:41;13.40;99.90
1766;DHT22;880;52.452;8.656;2023-04-10T08:09:07;13.50;99.90
1766;DHT22;880;52.452;8.656;2023-04-10T08:11:35;13.60;99.90
1766;DHT22;880;52.452;8.656;2023-04-10T08:14:04;13.90;99.90
1766;DHT22;880;52.452;8.656;2023-04-10T08:16:34;14.10;99.90
1766;DHT22;880;52.452;8.656;2023-04-10T08:19:02;14.30;99.90
1766;DHT22;880;52.452;8.656;2023-04-10T08:21:30;14.40;99.90
1766;DHT22;880;52.452;8.656;2023-04-10T08:24:01;14.60;99.90
1766;DHT22;880;52.452;8.656;2023-04-10T08:26:29;14.80;99.90
1766;DHT22;880;52.452;8.656;2023-04-10T08:28:57;14.90;99.90
1766;DHT22;880;52.452;8.656;2023-04-10T08:31:26;14.90;99.90
1766;DHT22;880;52.452;8.656;2023-04-10T08:33:55;14.90;99.90
1766;DHT22;880;52.452;8.656;2023-04-10T08:36:22;14.80;99.90
1766;DHT22;880;52.452;8.656;2023-04-10T08:38:50;14.80;99.90
1766;DHT22;880;52.452;8.656;2023-04-10T08:41:18;14.80;99.90
1766;DHT22;880;52.452;8.656;2023-04-10T08:43:45;14.90;99.90
1766;DHT22;880;52.452;8.656;2023-04-10T08:46:13;15.10;99.90
1766;DHT22;880;52.452;8.656;2023-04-10T08:48:54;15.30;99.90
1766;DHT22;880;52.452;8.656;2023-04-10T08:51:30;15.40;99.90
1766;DHT22;880;52.452;8.656;2023-04-10T08:54:13;15.50;99.90
1766;DHT22;880;52.452;8.656;2023-04-10T08:56:49;15.50;99.90
1766;DHT22;880;52.452;8.656;2023-04-10T08:59:17;15.60;99.90
1766;DHT22;880;52.452;8.656;2023-04-10T09:01:45;15.60;99.90
1766;DHT22;880;52.452;8.656;2023-04-10T09:04:13;15.70;99.90
1766;DHT22;880;52.452;8.656;2023-04-10T09:06:40;15.80;99.90
1766;DHT22;880;52.452;8.656;2023-04-10T09:09:07;15.80;99.90
1766;DHT22;880;52.452;8.656;2023-04-10T09:14:34;15.60;99.90
1766;DHT22;880;52.452;8.656;2023-04-10T09:17:22;15.40;99.90
1766;DHT22;880;52.452;8.656;2023-04-10T09:19:52;15.40;99.90
1766;DHT22;880;52.452;8.656;2023-04-10T09:22:33;15.50;99.90
1766;DHT22;880;52.452;8.656;2023-04-10T09:25:03;15.60;99.90
1766;DHT22;880;52.452;8.656;2023-04-10T09:27:36;15.80;99.90
1766;DHT22;880;52.452;8.656;2023-04-10T09:30:06;15.90;99.90
1766;DHT22;880;52.452;8.656;2023-04-10T09:32:43;16.00;99.90
1766;DHT22;880;52.452;8.656;2023-04-10T09:35:13;16.20;99.90
1766;DHT22;880;52.452;8.656;2023-04-10T09:37:43;16.20;99.90
1766;DHT22;880;52.452;8.656;2023-04-10T09:40:22;16.30;99.90
1766;DHT22;880;52.452;8.656;2023-04-10T09:42:51;16.40;99.90
1766;DHT22;880;52.452;8.656;2023-04-10T09:45:18;16.50;99.90
1766;DHT22;880;52.452;8.656;2023-04-10T09:48:04;16.60;99.90
1766;DHT22;880;52.452;8.656;2023-04-10T09:50:37;16.70;99.90
1766;DHT22;880;52.452;8.656;2023-04-10T09:53:07;16.80;99.90
1766;DHT22;880;52.452;8.656;2023-04-10T09:55:35;16.80;99.90
1766;DHT22;880;52.452;8.656;2023-04-10T09:58:03;16.70;99.40
1766;DHT22;880;52.452;8.656;2023-04-10T10:00:44;16.60;99.90
1766;DHT22;880;52.452;8.656;2023-04-10T10:03:14;16.50;99.40
1766;DHT22;880;52.452;8.656;2023-04-10T10:05:44;16.60;99.90
1766;DHT22;880;52.452;8.656;2023-04-10T10:08:14;16.70;99.30
1766;DHT22;880;52.452;8.656;2023-04-10T10:10:47;16.90;99.90
1766;DHT22;880;52.452;8.656;2023-04-10T10:13:34;17.00;98.70
1766;DHT22;880;52.452;8.656;2023-04-10T10:16:27;17.00;98.00
1766;DHT22;880;52.452;8.656;2023-04-10T10:19:17;17.10;98.20
1766;DHT22;880;52.452;8.656;2023-04-10T10:21:47;17.10;97.40
1766;DHT22;880;52.452;8.656;2023-04-10T10:24:14;17.20;97.10
1766;DHT22;880;52.452;8.656;2023-04-10T10:26:43;17.30;98.10
1766;DHT22;880;52.452;8.656;2023-04-10T10:29:11;17.30;97.20
1766;DHT22;880;52.452;8.656;2023-04-10T10:31:41;17.40;97.40
1766;DHT22;880;52.452;8.656;2023-04-10T10:34:09;17.50;97.30
1766;DHT22;880;52.452;8.656;2023-04-10T10:36:37;17.70;97.50
1766;DHT22;880;52.452;8.656;2023-04-10T10:45:09;17.50;96.00
1766;DHT22;880;52.452;8.656;2023-04-10T10:47:47;17.60;95.50
1766;DHT22;880;52.452;8.656;2023-04-10T10:50:16;17.80;96.60
1766;DHT22;880;52.452;8.656;2023-04-10T10:52:51;17.90;95.40
1766;DHT22;880;52.452;8.656;2023-04-10T10:57:56;17.90;96.00
1766;DHT22;880;52.452;8.656;2023-04-10T11:00:25;18.10;94.50
1766;DHT22;880;52.452;8.656;2023-04-10T11:05:59;17.90;94.20
1766;DHT22;880;52.452;8.656;2023-04-10T11:16:16;18.20;96.00
1766;DHT22;880;52.452;8.656;2023-04-10T11:21:15;18.10;94.70
1766;DHT22;880;52.452;8.656;2023-04-10T11:31:39;18.10;91.40
1766;DHT22;880;52.452;8.656;2023-04-10T11:34:07;18.10;93.30
1766;DHT22;880;52.452;8.656;2023-04-10T11:36:41;18.20;93.10
1766;DHT22;880;52.452;8.656;2023-04-10T11:41:47;18.40;92.00
1766;DHT22;880;52.452;8.656;2023-04-10T11:44:18;18.20;92.10
1766;DHT22;880;52.452;8.656;2023-04-10T11:46:58;18.10;92.20
1766;DHT22;880;52.452;8.656;2023-04-10T11:49:28;18.00;92.20
1766;DHT22;880;52.452;8.656;2023-04-10T11:51:56;17.80;92.20
1766;DHT22;880;52.452;8.656;2023-04-10T11:54:25;17.80;93.20
1766;DHT22;880;52.452;8.656;2023-04-10T11:57:06;17.90;93.50
1766;DHT22;880;52.452;8.656;2023-04-10T11:59:38;17.90;92.00
1766;DHT22;880;52.452;8.656;2023-04-10T12:02:06;17.80;90.10
1766;DHT22;880;52.452;8.656;2023-04-10T12:04:35;17.80;88.70
1766;DHT22;880;52.452;8.656;2023-04-10T12:07:03;17.80;90.00
1766;DHT22;880;52.452;8.656;2023-04-10T12:09:30;18.10;88.90
1766;DHT22;880;52.452;8.656;2023-04-10T12:12:01;18.30;87.00
1766;DHT22;880;52.452;8.656;2023-04-10T12:14:39;18.40;88.40
1766;DHT22;880;52.452;8.656;2023-04-10T12:17:09;18.60;88.00
1766;DHT22;880;52.452;8.656;2023-04-10T12:19:37;18.60;88.00
1766;DHT22;880;52.452;8.656;2023-04-10T12:22:04;18.60;87.40
1766;DHT22;880;52.452;8.656;2023-04-10T12:24:46;18.70;87.90
1766;DHT22;880;52.452;8.656;2023-04-10T12:27:21;18.80;89.40
1766;DHT22;880;52.452;8.656;2023-04-10T12:29:49;18.80;88.90
1766;DHT22;880;52.452;8.656;2023-04-10T12:32:17;18.80;87.60
1766;DHT22;880;52.452;8.656;2023-04-10T12:34:51;18.70;88.60
1766;DHT22;880;52.452;8.656;2023-04-10T12:37:19;18.70;89.90
1766;DHT22;880;52.452;8.656;2023-04-10T12:39:46;18.80;90.40
1766;DHT22;880;52.452;8.656;2023-04-10T12:42:22;18.80;90.00
1766;DHT22;880;52.452;8.656;2023-04-10T12:44:58;18.70;87.20
1766;DHT22;880;52.452;8.656;2023-04-10T12:47:28;18.60;89.90
1766;DHT22;880;52.452;8.656;2023-04-10T12:50:08;18.70;88.00
1766;DHT22;880;52.452;8.656;2023-04-10T12:52:44;18.60;89.00
1766;DHT22;880;52.452;8.656;2023-04-10T12:55:27;18.70;89.60
1766;DHT22;880;52.452;8.656;2023-04-10T12:57:57;18.70;87.50
1766;DHT22;880;52.452;8.656;2023-04-10T13:00:24;18.70;86.30
1766;DHT22;880;52.452;8.656;2023-04-10T13:02:51;18.80;87.60
1766;DHT22;880;52.452;8.656;2023-04-10T13:05:19;18.70;85.70
1766;DHT22;880;52.452;8.656;2023-04-10T13:07:47;18.60;85.80
1766;DHT22;880;52.452;8.656;2023-04-10T13:10:18;18.50;86.60
1766;DHT22;880;52.452;8.656;2023-04-10T13:12:46;18.60;88.50
1766;DHT22;880;52.452;8.656;2023-04-10T13:15:13;18.60;88.60
1766;DHT22;880;52.452;8.656;2023-04-10T13:17:40;18.60;89.40
1766;DHT22;880;52.452;8.656;2023-04-10T13:20:09;18.60;89.60
1766;DHT22;880;52.452;8.656;2023-04-10T13:22:36;18.60;87.40
1766;DHT22;880;52.452;8.656;2023-04-10T13:25:04;18.70;87.10
1766;DHT22;880;52.452;8.656;2023-04-10T13:27:31;18.70;86.50
1766;DHT22;880;52.452;8.656;2023-04-10T13:29:58;18.80;86.40
1766;DHT22;880;52.452;8.656;2023-04-10T13:32:25;19.00;87.50
1766;DHT22;880;52.452;8.656;2023-04-10T13:34:52;19.10;85.30
1766;DHT22;880;52.452;8.656;2023-04-10T13:37:20;19.10;87.00
1766;DHT22;880;52.452;8.656;2023-04-10T13:39:47;19.20;85.70
1766;DHT22;880;52.452;8.656;2023-04-10T13:42:14;19.10;82.60
1766;DHT22;880;52.452;8.656;2023-04-10T13:44:41;19.00;82.10
1766;DHT22;880;52.452;8.656;2023-04-10T13:47:08;18.90;81.50
1766;DHT22;880;52.452;8.656;2023-04-10T13:49:35;18.80;82.20
1766;DHT22;880;52.452;8.656;2023-04-10T13:52:02;18.80;82.40
1766;DHT22;880;52.452;8.656;2023-04-10T13:54:29;18.90;84.00
1766;DHT22;880;52.452;8.656;2023-04-10T13:56:56;18.80;81.50
1766;DHT22;880;52.452;8.656;2023-04-10T13:59:24;18.70;82.20
1766;DHT22;880;52.452;8.656;2023-04-10T14:01:51;18.70;84.10
1766;DHT22;880;52.452;8.656;2023-04-10T14:04:18;18.70;83.60
1766;DHT22;880;52.452;8.656;2023-04-10T14:06:45;18.70;84.30
1766;DHT22;880;52.452;8.656;2023-04-10T14:09:14;18.70;83.00
1766;DHT22;880;52.452;8.656;2023-04-10T14:11:41;18.60;82.60
1766;DHT22;880;52.452;8.656;2023-04-10T14:14:08;18.50;82.00
1766;DHT22;880;52.452;8.656;2023-04-10T14:16:35;18.50;82.00
1766;DHT22;880;52.452;8.656;2023-04-10T14:19:02;18.50;84.40
1766;DHT22;880;52.452;8.656;2023-04-10T14:21:29;18.60;83.40
1766;DHT22;880;52.452;8.656;2023-04-10T14:23:57;18.70;85.80
1766;DHT22;880;52.452;8.656;2023-04-10T14:26:25;18.70;83.80
1766;DHT22;880;52.452;8.656;2023-04-10T14:28:52;18.70;84.80
1766;DHT22;880;52.452;8.656;2023-04-10T14:31:19;18.80;85.60
1766;DHT22;880;52.452;8.656;2023-04-10T14:33:46;18.90;85.80
1766;DHT22;880;52.452;8.656;2023-04-10T14:36:14;19.10;83.70
1766;DHT22;880;52.452;8.656;2023-04-10T14:38:41;19.10;79.00
1766;DHT22;880;52.452;8.656;2023-04-10T14:41:08;18.90;80.40
1766;DHT22;880;52.452;8.656;2023-04-10T14:43:36;18.80;78.10
1766;DHT22;880;52.452;8.656;2023-04-10T14:46:03;18.70;82.00
1766;DHT22;880;52.452;8.656;2023-04-10T14:48:30;18.80;83.70
1766;DHT22;880;52.452;8.656;2023-04-10T14:50:57;18.80;84.30
1766;DHT22;880;52.452;8.656;2023-04-10T14:53:24;18.80;81.20
1766;DHT22;880;52.452;8.656;2023-04-10T14:55:51;18.90;79.30
1766;DHT22;880;52.452;8.656;2023-04-10T14:58:18;19.00;73.40
1766;DHT22;880;52.452;8.656;2023-04-10T15:00:45;19.20;74.30
1766;DHT22;880;52.452;8.656;2023-04-10T15:03:12;19.30;70.20
1766;DHT22;880;52.452;8.656;2023-04-10T15:05:39;19.20;69.40
1766;DHT22;880;52.452;8.656;2023-04-10T15:08:06;19.10;69.60
1766;DHT22;880;52.452;8.656;2023-04-10T15:10:34;19.00;68.70
1766;DHT22;880;52.452;8.656;2023-04-10T15:13:00;18.90;69.00
1766;DHT22;880;52.452;8.656;2023-04-10T15:15:27;18.80;69.40
1766;DHT22;880;52.452;8.656;2023-04-10T15:17:54;18.70;70.40
1766;DHT22;880;52.452;8.656;2023-04-10T15:20:21;18.70;69.80
1766;DHT22;880;52.452;8.656;2023-04-10T15:22:55;18.60;68.50
1766;DHT22;880;52.452;8.656;2023-04-10T15:25:24;18.50;70.90
1766;DHT22;880;52.452;8.656;2023-04-10T15:27:53;18.50;70.20
1766;DHT22;880;52.452;8.656;2023-04-10T15:30:21;18.40;68.80
1766;DHT22;880;52.452;8.656;2023-04-10T15:32:53;18.30;69.30
1766;DHT22;880;52.452;8.656;2023-04-10T15:35:21;18.20;68.40
1766;DHT22;880;52.452;8.656;2023-04-10T15:37:50;18.20;69.30
1766;DHT22;880;52.452;8.656;2023-04-10T15:40:20;18.20;72.20
1766;DHT22;880;52.452;8.656;2023-04-10T15:42:47;18.20;75.20
1766;DHT22;880;52.452;8.656;2023-04-10T15:45:14;18.20;73.10
1766;DHT22;880;52.452;8.656;2023-04-10T15:47:41;18.10;72.40
1766;DHT22;880;52.452;8.656;2023-04-10T15:50:08;18.10;71.70
1766;DHT22;880;52.452;8.656;2023-04-10T15:52:36;18.00;72.00
1766;DHT22;880;52.452;8.656;2023-04-10T15:55:04;17.90;73.10
1766;DHT22;880;52.452;8.656;2023-04-10T15:57:32;17.90;74.60
1766;DHT22;880;52.452;8.656;2023-04-10T15:59:59;17.80;74.20
1766;DHT22;880;52.452;8.656;2023-04-10T16:02:29;17.80;75.00
1766;DHT22;880;52.452;8.656;2023-04-10T16:04:59;17.70;73.60
1766;DHT22;880;52.452;8.656;2023-04-10T16:07:27;17.70;74.60
1766;DHT22;880;52.452;8.656;2023-04-10T16:09:54;17.70;75.20
1766;DHT22;880;52.452;8.656;2023-04-10T16:12:22;17.60;76.40
1766;DHT22;880;52.452;8.656;2023-04-10T16:14:49;17.60;75.30
1766;DHT22;880;52.452;8.656;2023-04-10T16:17:16;17.60;75.30
1766;DHT22;880;52.452;8.656;2023-04-10T16:19:43;17.60;75.20
1766;DHT22;880;52.452;8.656;2023-04-10T16:22:10;17.70;76.20
1766;DHT22;880;52.452;8.656;2023-04-10T16:24:37;17.60;75.50
1766;DHT22;880;52.452;8.656;2023-04-10T16:27:04;17.60;76.00
1766;DHT22;880;52.452;8.656;2023-04-10T16:29:34;17.60;76.80
1766;DHT22;880;52.452;8.656;2023-04-10T16:32:00;17.60;76.50
1766;DHT22;880;52.452;8.656;2023-04-10T16:34:27;17.70;73.90
1766;DHT22;880;52.452;8.656;2023-04-10T16:36:54;17.60;73.70
1766;DHT22;880;52.452;8.656;2023-04-10T16:39:21;17.60;72.40
1766;DHT22;880;52.452;8.656;2023-04-10T16:41:48;17.50;73.20
1766;DHT22;880;52.452;8.656;2023-04-10T16:44:15;17.40;74.50
1766;DHT22;880;52.452;8.656;2023-04-10T16:46:42;17.50;74.70
1766;DHT22;880;52.452;8.656;2023-04-10T16:49:09;17.50;75.00
1766;DHT22;880;52.452;8.656;2023-04-10T16:51:36;17.40;75.20
1766;DHT22;880;52.452;8.656;2023-04-10T16:54:04;17.30;75.50
1766;DHT22;880;52.452;8.656;2023-04-10T16:56:31;17.20;76.40
1766;DHT22;880;52.452;8.656;2023-04-10T16:58:58;17.20;77.50
1766;DHT22;880;52.452;8.656;2023-04-10T17:01:25;17.10;75.30
1766;DHT22;880;52.452;8.656;2023-04-10T17:03:53;17.10;76.00
1766;DHT22;880;52.452;8.656;2023-04-10T17:06:20;17.10;76.30
1766;DHT22;880;52.452;8.656;2023-04-10T17:08:47;17.00;76.60
1766;DHT22;880;52.452;8.656;2023-04-10T17:11:14;17.00;77.00
1766;DHT22;880;52.452;8.656;2023-04-10T17:13:41;16.90;76.50
1766;DHT22;880;52.452;8.656;2023-04-10T17:16:08;16.90;76.40
1766;DHT22;880;52.452;8.656;2023-04-10T17:18:36;16.90;77.00
1766;DHT22;880;52.452;8.656;2023-04-10T17:21:03;16.90;76.00
1766;DHT22;880;52.452;8.656;2023-04-10T17:23:30;16.80;76.30
1766;DHT22;880;52.452;8.656;2023-04-10T17:25:57;16.90;75.70
1766;DHT22;880;52.452;8.656;2023-04-10T17:28:24;16.80;75.50
1766;DHT22;880;52.452;8.656;2023-04-10T17:30:51;16.70;75.30
1766;DHT22;880;52.452;8.656;2023-04-10T17:33:18;16.70;75.10